Bookmark and Share
Track history (hours):
 

Edward Cornwallis

Last reported at 2014-Apr-16 15:29 UTC. Time now 2014-Apr-16 16:10 UTC.
Position N 47°33' W 052°42'.

Length 83 m; draft 6 m.

Type: SAR. MMSI: 316020000.

NotesDate/timePositionNaut miles runAvg speedWind from/ knotsBaromVisibWave heightAir tempDewpointWater temp
2014-Apr-16 15:29N 47°33' W 052°42'0 0.0
2014-Apr-16 14:29N 47°33' W 052°42'0 0.0
2014-Apr-16 13:29N 47°33' W 052°42'0 0.0
2014-Apr-16 12:29N 47°33' W 052°42'0 0.0
2014-Apr-16 11:26N 47°33' W 052°42'3 3.3
2014-Apr-16 10:29N 47°34' W 052°38'4 3.4
2014-Apr-16 09:22N 47°38' W 052°38'  
2014-Apr-13 16:28N 47°39' W 052°35'7 7.0
2014-Apr-13 15:29N 47°34' W 052°42'0 0.0
2014-Apr-13 14:26N 47°34' W 052°42'0 0.0
2014-Apr-13 13:29N 47°34' W 052°42'0 0.0
2014-Apr-13 12:29N 47°34' W 052°42'0 0.0
2014-Apr-13 11:23N 47°34' W 052°42'0 0.4
2014-Apr-13 10:34N 47°33' W 052°42'0 0.0
2014-Apr-13 09:22N 47°33' W 052°42'0 0.0
2014-Apr-13 08:34N 47°33' W 052°42'0 0.0
2014-Apr-13 07:34N 47°33' W 052°42'0 0.0
2014-Apr-13 06:34N 47°33' W 052°42'0 0.0
2014-Apr-13 05:31N 47°33' W 052°42'0 0.0
2014-Apr-13 04:31N 47°33' W 052°42'0 0.0
2014-Apr-13 03:31N 47°33' W 052°42'0 0.0
2014-Apr-13 02:22N 47°33' W 052°42'0 0.0
2014-Apr-13 01:34N 47°33' W 052°42'0 0.0
2014-Apr-13 00:31N 47°33' W 052°42'0 0.0
2014-Apr-12 23:34N 47°33' W 052°42'0 0.0
2014-Apr-12 22:34N 47°33' W 052°42'0 0.0
2014-Apr-12 21:34N 47°33' W 052°42'0 0.0
2014-Apr-12 20:34N 47°33' W 052°42'0 0.0
2014-Apr-12 19:28N 47°33' W 052°42'0 0.0
2014-Apr-12 18:34N 47°33' W 052°42'0 0.0
2014-Apr-12 17:34N 47°33' W 052°42'0 0.0
2014-Apr-12 16:28N 47°33' W 052°42'0 0.0
2014-Apr-12 15:28N 47°33' W 052°42'0 0.0
2014-Apr-12 14:31N 47°33' W 052°42'0 0.0
2014-Apr-12 13:34N 47°33' W 052°42'3 3.2
2014-Apr-12 12:29N 47°34' W 052°37'1110.7
2014-Apr-12 11:29N 47°34' W 052°21'4 4.0
2014-Apr-12 10:29N 47°37' W 052°18'5 4.7
2014-Apr-12 09:29N 47°41' W 052°14'2 2.2
2014-Apr-12 08:33N 47°39' W 052°14'9 7.8
2014-Apr-12 07:27N 47°31' W 052°17'  
2014-Apr-10 02:13N 47°13' W 052°32'4 5.6
2014-Apr-10 01:32N 47°17' W 052°32'6 5.6
2014-Apr-10 00:30N 47°23' W 052°34'6 5.6
2014-Apr-09 23:30N 47°28' W 052°34'5 5.2
2014-Apr-09 22:30N 47°33' W 052°38'3 3.1
2014-Apr-09 21:29N 47°33' W 052°42'0 0.0
2014-Apr-09 20:29N 47°33' W 052°42'0 0.0
2014-Apr-09 19:29N 47°33' W 052°42'0 0.0
2014-Apr-09 18:23N 47°33' W 052°42'0 0.0
2014-Apr-09 17:29N 47°33' W 052°42'0 0.0
2014-Apr-09 16:29N 47°33' W 052°42'0 0.0
2014-Apr-09 15:29N 47°33' W 052°42'0 0.0
2014-Apr-09 14:29N 47°33' W 052°42'0 0.0
2014-Apr-09 13:29N 47°33' W 052°42'0 0.0
2014-Apr-09 12:29N 47°33' W 052°42'0 0.0
2014-Apr-09 11:29N 47°33' W 052°42'0 0.0
2014-Apr-09 10:29N 47°33' W 052°42'0 0.0
2014-Apr-09 09:29N 47°33' W 052°42'0 0.0
2014-Apr-09 08:29N 47°33' W 052°42'0 0.0
2014-Apr-09 07:29N 47°33' W 052°42'0 0.0
2014-Apr-09 06:29N 47°33' W 052°42'0 0.0
2014-Apr-09 05:26N 47°33' W 052°42'0 0.0
2014-Apr-09 04:23N 47°33' W 052°42'0 0.0
2014-Apr-09 03:23N 47°33' W 052°42'0 0.0
2014-Apr-09 02:29N 47°33' W 052°42'0 0.0
2014-Apr-09 01:29N 47°33' W 052°42'0 0.0
2014-Apr-09 00:29N 47°33' W 052°42'0 0.0
2014-Apr-08 23:29N 47°33' W 052°42'0 0.0
2014-Apr-08 22:26N 47°33' W 052°42'0 0.0
2014-Apr-08 21:29N 47°33' W 052°42'0 0.0
2014-Apr-08 20:29N 47°33' W 052°42'0 0.0
2014-Apr-08 19:26N 47°33' W 052°42'0 0.0
2014-Apr-08 18:32N 47°33' W 052°42'0 0.0
2014-Apr-08 17:29N 47°33' W 052°42'0 0.0
2014-Apr-08 16:29N 47°33' W 052°42'0 0.0
2014-Apr-08 15:23N 47°33' W 052°42'0 0.0
2014-Apr-08 14:29N 47°33' W 052°42'0 0.0
2014-Apr-08 13:29N 47°33' W 052°42'0 0.0
2014-Apr-08 12:29N 47°33' W 052°42'0 0.0
2014-Apr-08 11:29N 47°33' W 052°42'0 0.0
2014-Apr-08 10:29N 47°33' W 052°42'0 0.0
2014-Apr-08 09:29N 47°33' W 052°42'0 0.0
2014-Apr-08 08:29N 47°33' W 052°42'0 0.0
2014-Apr-08 07:29N 47°33' W 052°42'0 0.0
2014-Apr-08 06:29N 47°33' W 052°42'0 0.0
2014-Apr-08 05:29N 47°33' W 052°42'0 0.0
2014-Apr-08 04:29N 47°33' W 052°42'0 0.0
2014-Apr-08 03:29N 47°33' W 052°42'0 0.0
2014-Apr-08 02:26N 47°33' W 052°42'0 0.0
2014-Apr-08 01:29N 47°33' W 052°42'0 0.0
2014-Apr-08 00:29N 47°33' W 052°42'0 0.0
2014-Apr-07 23:29N 47°33' W 052°42'0 0.0
2014-Apr-07 22:17N 47°33' W 052°42'0 0.0
2014-Apr-07 21:23N 47°33' W 052°42'0 0.0
2014-Apr-07 20:32N 47°33' W 052°42'0 0.0
2014-Apr-07 19:32N 47°33' W 052°42'0 0.0
2014-Apr-07 16:23N 47°33' W 052°42'0 0.0
2014-Apr-07 14:26N 47°33' W 052°42'0 0.0
2014-Apr-07 13:27N 47°33' W 052°42'4 4.6
2014-Apr-07 12:29N 47°37' W 052°38'17 7.5
2014-Apr-07 10:11N 47°38' W 053°04'  

Dump ship's entire track history

sailing weather and tide predictions

Edward Cornwallis — CGJV — position and weather